sensor_id;sensor_type;location;lat;lon;timestamp;pressure;altitude;pressure_sealevel;temperature;humidity
41712;BME280;27399;51.516;13.670;2022-10-31T00:01:11;100855.28;;;13.47;87.33
41712;BME280;27399;51.516;13.670;2022-10-31T00:03:37;100846.34;;;13.48;86.64
41712;BME280;27399;51.516;13.670;2022-10-31T00:06:03;100853.22;;;13.65;85.73
41712;BME280;27399;51.516;13.670;2022-10-31T00:08:28;100852.47;;;13.58;86.25
41712;BME280;27399;51.516;13.670;2022-10-31T00:10:54;100855.31;;;13.46;86.56
41712;BME280;27399;51.516;13.670;2022-10-31T00:13:20;100861.59;;;13.42;86.86
41712;BME280;27399;51.516;13.670;2022-10-31T00:15:45;100860.72;;;13.40;86.94
41712;BME280;27399;51.516;13.670;2022-10-31T00:18:11;100855.47;;;13.30;87.33
41712;BME280;27399;51.516;13.670;2022-10-31T00:20:37;100858.13;;;13.32;87.26
41712;BME280;27399;51.516;13.670;2022-10-31T00:23:04;100865.25;;;13.35;86.91
41712;BME280;27399;51.516;13.670;2022-10-31T00:25:33;100859.03;;;13.31;87.15
41712;BME280;27399;51.516;13.670;2022-10-31T00:27:59;100866.09;;;13.41;86.91
41712;BME280;27399;51.516;13.670;2022-10-31T00:30:25;100857.28;;;13.30;86.96
41712;BME280;27399;51.516;13.670;2022-10-31T00:32:51;100864.53;;;13.22;87.28
41712;BME280;27399;51.516;13.670;2022-10-31T00:35:16;100870.78;;;13.21;87.64
41712;BME280;27399;51.516;13.670;2022-10-31T00:37:42;100865.50;;;13.13;87.57
41712;BME280;27399;51.516;13.670;2022-10-31T00:40:08;100872.75;;;13.05;88.30
41712;BME280;27399;51.516;13.670;2022-10-31T00:42:34;100861.38;;;12.82;88.60
41712;BME280;27399;51.516;13.670;2022-10-31T00:44:59;100878.09;;;13.03;88.42
41712;BME280;27399;51.516;13.670;2022-10-31T00:47:25;100885.13;;;13.15;88.43
41712;BME280;27399;51.516;13.670;2022-10-31T00:49:50;100881.59;;;13.11;88.40
41712;BME280;27399;51.516;13.670;2022-10-31T00:52:16;100877.97;;;13.15;88.28
41712;BME280;27399;51.516;13.670;2022-10-31T00:54:41;100887.88;;;13.10;87.61
41712;BME280;27399;51.516;13.670;2022-10-31T00:57:07;100884.38;;;13.04;87.77
41712;BME280;27399;51.516;13.670;2022-10-31T00:59:33;100878.13;;;13.01;87.44
41712;BME280;27399;51.516;13.670;2022-10-31T01:01:58;100884.28;;;13.11;87.33
41712;BME280;27399;51.516;13.670;2022-10-31T01:04:24;100881.53;;;13.17;86.66
41712;BME280;27399;51.516;13.670;2022-10-31T01:06:49;100883.25;;;13.23;86.32
41712;BME280;27399;51.516;13.670;2022-10-31T01:09:15;100874.38;;;13.16;86.38
41712;BME280;27399;51.516;13.670;2022-10-31T01:11:40;100884.13;;;13.24;85.96
41712;BME280;27399;51.516;13.670;2022-10-31T01:14:06;100885.06;;;13.20;86.03
41712;BME280;27399;51.516;13.670;2022-10-31T01:16:32;100884.19;;;13.17;85.87
41712;BME280;27399;51.516;13.670;2022-10-31T01:18:57;100881.50;;;13.19;86.29
41712;BME280;27399;51.516;13.670;2022-10-31T01:21:25;100887.06;;;13.00;86.64
41712;BME280;27399;51.516;13.670;2022-10-31T01:23:53;100881.81;;;12.91;86.70
41712;BME280;27399;51.516;13.670;2022-10-31T01:26:21;100885.31;;;12.96;86.56
41712;BME280;27399;51.516;13.670;2022-10-31T01:28:55;100861.34;;;12.85;86.48
41712;BME280;27399;51.516;13.670;2022-10-31T01:31:23;100886.38;;;12.81;87.07
41712;BME280;27399;51.516;13.670;2022-10-31T01:33:49;100887.16;;;12.93;86.97
41712;BME280;27399;51.516;13.670;2022-10-31T01:36:19;100879.16;;;12.88;87.53
41712;BME280;27399;51.516;13.670;2022-10-31T01:38:47;100888.16;;;12.81;87.05
41712;BME280;27399;51.516;13.670;2022-10-31T01:41:16;100881.97;;;12.77;87.55
41712;BME280;27399;51.516;13.670;2022-10-31T01:43:44;100885.56;;;12.73;87.51
41712;BME280;27399;51.516;13.670;2022-10-31T01:46:10;100885.53;;;12.79;87.23
41712;BME280;27399;51.516;13.670;2022-10-31T01:48:36;100886.50;;;12.70;87.59
41712;BME280;27399;51.516;13.670;2022-10-31T01:51:02;100885.56;;;12.75;86.68
41712;BME280;27399;51.516;13.670;2022-10-31T01:53:30;100892.78;;;12.68;87.01
41712;BME280;27399;51.516;13.670;2022-10-31T01:55:57;100890.03;;;12.74;87.03
41712;BME280;27399;51.516;13.670;2022-10-31T01:58:25;100888.22;;;12.76;86.70
41712;BME280;27399;51.516;13.670;2022-10-31T02:00:56;100888.09;;;12.89;86.83
41712;BME280;27399;51.516;13.670;2022-10-31T02:03:25;100890.03;;;12.74;86.79
41712;BME280;27399;51.516;13.670;2022-10-31T02:05:53;100890.06;;;12.69;86.55
41712;BME280;27399;51.516;13.670;2022-10-31T02:08:33;100891.94;;;12.60;87.13
41712;BME280;27399;51.516;13.670;2022-10-31T02:11:00;100888.31;;;12.67;86.63
41712;BME280;27399;51.516;13.670;2022-10-31T02:13:27;100895.56;;;12.52;87.73
41712;BME280;27399;51.516;13.670;2022-10-31T02:15:57;100907.28;;;12.40;87.75
41712;BME280;27399;51.516;13.670;2022-10-31T02:18:24;100903.41;;;12.74;86.98
41712;BME280;27399;51.516;13.670;2022-10-31T02:32:16;100916.97;;;12.52;86.45
41712;BME280;27399;51.516;13.670;2022-10-31T02:34:51;100913.44;;;12.52;86.66
41712;BME280;27399;51.516;13.670;2022-10-31T02:40:21;100905.34;;;12.55;86.66
41712;BME280;27399;51.516;13.670;2022-10-31T02:43:29;100912.44;;;12.62;86.33
41712;BME280;27399;51.516;13.670;2022-10-31T02:45:59;100917.03;;;12.45;87.22
41712;BME280;27399;51.516;13.670;2022-10-31T02:48:28;100905.34;;;12.55;86.70
41712;BME280;27399;51.516;13.670;2022-10-31T02:50:58;100927.69;;;12.52;87.05
41712;BME280;27399;51.516;13.670;2022-10-31T02:53:25;100912.66;;;12.37;87.49
41712;BME280;27399;51.516;13.670;2022-10-31T02:58:29;100916.19;;;12.43;87.28
41712;BME280;27399;51.516;13.670;2022-10-31T03:09:01;100921.69;;;12.22;87.55
41712;BME280;27399;51.516;13.670;2022-10-31T03:11:43;100928.78;;;12.28;87.29
41712;BME280;27399;51.516;13.670;2022-10-31T03:14:21;100924.34;;;12.26;87.42
41712;BME280;27399;51.516;13.670;2022-10-31T03:16:52;100929.53;;;12.44;87.66
41712;BME280;27399;51.516;13.670;2022-10-31T03:21:50;100930.53;;;12.31;87.39
41712;BME280;27399;51.516;13.670;2022-10-31T03:24:20;100921.66;;;12.26;87.37
41712;BME280;27399;51.516;13.670;2022-10-31T03:26:53;100927.88;;;12.28;87.10
41712;BME280;27399;51.516;13.670;2022-10-31T03:29:23;100939.44;;;12.30;87.06
41712;BME280;27399;51.516;13.670;2022-10-31T03:31:57;100935.81;;;12.42;87.02
41712;BME280;27399;51.516;13.670;2022-10-31T03:34:24;100943.81;;;12.40;86.08
41712;BME280;27399;51.516;13.670;2022-10-31T03:36:54;100940.38;;;12.26;87.12
41712;BME280;27399;51.516;13.670;2022-10-31T03:39:22;100942.91;;;12.44;86.60
41712;BME280;27399;51.516;13.670;2022-10-31T03:41:59;100948.34;;;12.29;86.54
41712;BME280;27399;51.516;13.670;2022-10-31T03:44:29;100942.91;;;12.47;86.41
41712;BME280;27399;51.516;13.670;2022-10-31T03:46:55;100948.31;;;12.33;86.33
41712;BME280;27399;51.516;13.670;2022-10-31T03:49:21;100944.81;;;12.28;86.41
41712;BME280;27399;51.516;13.670;2022-10-31T03:54:25;100949.22;;;12.37;86.21
41712;BME280;27399;51.516;13.670;2022-10-31T03:56:56;100956.28;;;12.44;86.22
41712;BME280;27399;51.516;13.670;2022-10-31T03:59:27;100954.59;;;12.28;85.43
41712;BME280;27399;51.516;13.670;2022-10-31T04:02:00;100956.38;;;12.32;85.72
41712;BME280;27399;51.516;13.670;2022-10-31T04:04:27;100964.38;;;12.35;85.70
41712;BME280;27399;51.516;13.670;2022-10-31T04:06:54;100947.50;;;12.27;85.91
41712;BME280;27399;51.516;13.670;2022-10-31T04:09:23;100960.75;;;12.45;85.32
41712;BME280;27399;51.516;13.670;2022-10-31T04:11:51;100935.13;;;12.13;85.46
41712;BME280;27399;51.516;13.670;2022-10-31T04:14:18;100959.94;;;12.32;85.46
41712;BME280;27399;51.516;13.670;2022-10-31T04:16:44;100963.56;;;12.27;85.83
41712;BME280;27399;51.516;13.670;2022-10-31T04:19:11;100968.91;;;12.23;86.30
41712;BME280;27399;51.516;13.670;2022-10-31T04:21:37;100964.31;;;12.44;85.54
41712;BME280;27399;51.516;13.670;2022-10-31T04:24:03;100965.31;;;12.29;85.14
41712;BME280;27399;51.516;13.670;2022-10-31T04:26:28;100967.06;;;12.32;85.79
41712;BME280;27399;51.516;13.670;2022-10-31T04:28:54;100960.72;;;12.44;85.30
41712;BME280;27399;51.516;13.670;2022-10-31T04:31:20;100954.59;;;12.34;85.37
41712;BME280;27399;51.516;13.670;2022-10-31T04:33:45;100964.44;;;12.24;86.17
41712;BME280;27399;51.516;13.670;2022-10-31T04:36:11;100959.97;;;12.29;85.83
41712;BME280;27399;51.516;13.670;2022-10-31T04:38:37;100968.94;;;12.20;86.02
41712;BME280;27399;51.516;13.670;2022-10-31T04:41:02;100972.53;;;12.16;86.51
41712;BME280;27399;51.516;13.670;2022-10-31T04:43:28;100966.31;;;12.14;86.89
41712;BME280;27399;51.516;13.670;2022-10-31T04:45:53;100968.13;;;12.07;86.93
41712;BME280;27399;51.516;13.670;2022-10-31T04:48:19;100962.66;;;12.23;86.40
41712;BME280;27399;51.516;13.670;2022-10-31T04:50:45;100969.84;;;12.18;86.20
41712;BME280;27399;51.516;13.670;2022-10-31T04:53:10;100969.88;;;12.16;85.67
41712;BME280;27399;51.516;13.670;2022-10-31T04:55:36;100974.41;;;12.02;85.30
41712;BME280;27399;51.516;13.670;2022-10-31T04:58:02;100970.81;;;12.03;85.76
41712;BME280;27399;51.516;13.670;2022-10-31T05:00:28;100977.06;;;12.02;85.91
41712;BME280;27399;51.516;13.670;2022-10-31T05:02:55;100973.53;;;11.90;86.49
41712;BME280;27399;51.516;13.670;2022-10-31T05:05:24;100974.47;;;11.77;87.51
41712;BME280;27399;51.516;13.670;2022-10-31T05:07:50;100973.63;;;11.69;87.51
41712;BME280;27399;51.516;13.670;2022-10-31T05:10:18;100970.97;;;11.67;87.89
41712;BME280;27399;51.516;13.670;2022-10-31T05:12:55;100981.66;;;11.66;87.93
41712;BME280;27399;51.516;13.670;2022-10-31T05:15:23;100972.72;;;11.73;87.82
41712;BME280;27399;51.516;13.670;2022-10-31T05:17:50;100975.41;;;11.73;87.31
41712;BME280;27399;51.516;13.670;2022-10-31T05:20:18;100978.97;;;11.69;87.39
41712;BME280;27399;51.516;13.670;2022-10-31T05:22:49;100980.72;;;11.76;87.24
41712;BME280;27399;51.516;13.670;2022-10-31T05:25:16;100978.03;;;11.82;87.03
41712;BME280;27399;51.516;13.670;2022-10-31T05:27:45;100985.97;;;11.93;85.95
41712;BME280;27399;51.516;13.670;2022-10-31T05:30:14;100987.81;;;11.88;85.12
41712;BME280;27399;51.516;13.670;2022-10-31T05:32:44;100983.34;;;11.85;85.68
41712;BME280;27399;51.516;13.670;2022-10-31T05:35:13;100984.34;;;11.67;86.37
41712;BME280;27399;51.516;13.670;2022-10-31T05:37:40;100981.66;;;11.67;86.34
41712;BME280;27399;51.516;13.670;2022-10-31T05:40:07;100981.59;;;11.75;86.49
41712;BME280;27399;51.516;13.670;2022-10-31T05:42:34;100976.34;;;11.62;86.02
41712;BME280;27399;51.516;13.670;2022-10-31T05:45:00;100996.75;;;11.79;85.69
41712;BME280;27399;51.516;13.670;2022-10-31T05:47:25;100990.50;;;11.77;85.22
41712;BME280;27399;51.516;13.670;2022-10-31T05:49:51;100976.38;;;11.53;85.76
41712;BME280;27399;51.516;13.670;2022-10-31T05:52:17;100995.91;;;11.65;85.61
41712;BME280;27399;51.516;13.670;2022-10-31T05:54:42;100999.47;;;11.59;85.90
41712;BME280;27399;51.516;13.670;2022-10-31T05:57:08;100996.81;;;11.63;85.76
41712;BME280;27399;51.516;13.670;2022-10-31T05:59:34;100993.28;;;11.52;86.85
41712;BME280;27399;51.516;13.670;2022-10-31T06:02:00;100990.59;;;11.51;86.66
41712;BME280;27399;51.516;13.670;2022-10-31T06:04:25;100996.84;;;11.45;87.31
41712;BME280;27399;51.516;13.670;2022-10-31T06:06:51;100998.63;;;11.46;87.17
41712;BME280;27399;51.516;13.670;2022-10-31T06:09:16;100997.75;;;11.47;87.07
41712;BME280;27399;51.516;13.670;2022-10-31T06:11:42;100998.66;;;11.41;86.94
41712;BME280;27399;51.516;13.670;2022-10-31T06:14:07;101006.63;;;11.58;86.28
41712;BME280;27399;51.516;13.670;2022-10-31T06:16:33;101010.22;;;11.45;86.99
41712;BME280;27399;51.516;13.670;2022-10-31T06:18:59;101006.63;;;11.55;86.79
41712;BME280;27399;51.516;13.670;2022-10-31T06:21:24;101002.16;;;11.60;86.15
41712;BME280;27399;51.516;13.670;2022-10-31T06:23:50;101015.50;;;11.67;86.70
41712;BME280;27399;51.516;13.670;2022-10-31T06:26:16;101012.00;;;11.52;86.79
41712;BME280;27399;51.516;13.670;2022-10-31T06:28:41;101011.16;;;11.36;87.39
41712;BME280;27399;51.516;13.670;2022-10-31T06:31:07;101016.50;;;11.36;87.44
41712;BME280;27399;51.516;13.670;2022-10-31T06:33:33;101019.16;;;11.41;87.36
41712;BME280;27399;51.516;13.670;2022-10-31T06:35:59;101009.34;;;11.40;87.47
41712;BME280;27399;51.516;13.670;2022-10-31T06:38:26;101028.03;;;11.49;86.92
41712;BME280;27399;51.516;13.670;2022-10-31T06:40:52;101031.53;;;11.65;86.92
41712;BME280;27399;51.516;13.670;2022-10-31T06:43:19;101023.53;;;11.59;87.07
41712;BME280;27399;51.516;13.670;2022-10-31T06:45:44;101029.78;;;11.62;87.21
41712;BME280;27399;51.516;13.670;2022-10-31T06:48:10;101028.84;;;11.67;87.18
41712;BME280;27399;51.516;13.670;2022-10-31T06:50:36;101033.38;;;11.52;87.66
41712;BME280;27399;51.516;13.670;2022-10-31T06:53:01;101037.78;;;11.64;87.34
41712;BME280;27399;51.516;13.670;2022-10-31T06:55:27;101040.38;;;11.81;87.19
41712;BME280;27399;51.516;13.670;2022-10-31T06:57:54;101044.91;;;11.65;87.88
41712;BME280;27399;51.516;13.670;2022-10-31T07:00:20;101036.91;;;11.54;88.62
41712;BME280;27399;51.516;13.670;2022-10-31T07:03:05;101038.72;;;11.47;88.91
41712;BME280;27399;51.516;13.670;2022-10-31T07:05:31;101047.59;;;11.54;89.09
41712;BME280;27399;51.516;13.670;2022-10-31T07:08:02;101052.03;;;11.69;88.75
41712;BME280;27399;51.516;13.670;2022-10-31T07:10:30;101049.31;;;11.75;88.87
41712;BME280;27399;51.516;13.670;2022-10-31T07:13:00;101052.00;;;11.75;88.75
41712;BME280;27399;51.516;13.670;2022-10-31T07:15:28;101050.16;;;11.85;88.81
41712;BME280;27399;51.516;13.670;2022-10-31T07:17:58;101052.84;;;11.87;88.99
41712;BME280;27399;51.516;13.670;2022-10-31T07:20:24;101051.13;;;11.72;89.10
41712;BME280;27399;51.516;13.670;2022-10-31T07:22:50;101052.91;;;11.73;89.24
41712;BME280;27399;51.516;13.670;2022-10-31T07:25:15;101063.50;;;12.01;89.07
41712;BME280;27399;51.516;13.670;2022-10-31T07:27:42;101064.41;;;12.03;88.57
41712;BME280;27399;51.516;13.670;2022-10-31T07:30:10;101060.78;;;12.07;89.01
41712;BME280;27399;51.516;13.670;2022-10-31T07:32:40;101059.94;;;12.02;89.65
41712;BME280;27399;51.516;13.670;2022-10-31T07:35:11;101062.59;;;11.97;90.48
41712;BME280;27399;51.516;13.670;2022-10-31T07:37:37;101065.28;;;12.02;90.46
41712;BME280;27399;51.516;13.670;2022-10-31T07:40:04;101064.41;;;11.90;91.24
41712;BME280;27399;51.516;13.670;2022-10-31T07:42:38;101075.97;;;12.02;91.45
41712;BME280;27399;51.516;13.670;2022-10-31T07:45:05;101069.72;;;12.01;91.87
41712;BME280;27399;51.516;13.670;2022-10-31T07:47:45;101068.72;;;12.29;90.75
41712;BME280;27399;51.516;13.670;2022-10-31T07:50:13;101065.97;;;12.47;90.30
41712;BME280;27399;51.516;13.670;2022-10-31T07:52:39;101070.38;;;12.51;90.08
41712;BME280;27399;51.516;13.670;2022-10-31T07:55:06;101066.75;;;12.63;89.94
41712;BME280;27399;51.516;13.670;2022-10-31T07:57:32;101062.22;;;12.70;90.08
41712;BME280;27399;51.516;13.670;2022-10-31T07:59:58;101071.03;;;12.84;89.80
41712;BME280;27399;51.516;13.670;2022-10-31T08:02:24;101064.75;;;12.90;90.16
41712;BME280;27399;51.516;13.670;2022-10-31T08:04:50;101068.34;;;12.91;90.86
41712;BME280;27399;51.516;13.670;2022-10-31T08:07:16;101075.44;;;12.92;91.62
41712;BME280;27399;51.516;13.670;2022-10-31T08:09:42;101079.75;;;13.13;91.66
41712;BME280;27399;51.516;13.670;2022-10-31T08:12:08;101072.56;;;13.16;91.88
41712;BME280;27399;51.516;13.670;2022-10-31T08:14:33;101077.03;;;13.17;92.38
41712;BME280;27399;51.516;13.670;2022-10-31T08:16:59;101080.47;;;13.32;92.18
41712;BME280;27399;51.516;13.670;2022-10-31T08:19:25;101052.69;;;13.45;91.46
41712;BME280;27399;51.516;13.670;2022-10-31T08:21:51;101072.09;;;13.69;91.74
41712;BME280;27399;51.516;13.670;2022-10-31T08:24:17;101069.34;;;13.74;91.85
41712;BME280;27399;51.516;13.670;2022-10-31T08:26:43;101070.00;;;13.96;90.99
41712;BME280;27399;51.516;13.670;2022-10-31T08:29:09;101072.56;;;14.05;91.08
41712;BME280;27399;51.516;13.670;2022-10-31T08:31:34;101070.72;;;14.09;91.67
41712;BME280;27399;51.516;13.670;2022-10-31T08:34:00;101068.75;;;14.25;91.05
41712;BME280;27399;51.516;13.670;2022-10-31T08:36:27;101081.28;;;14.23;91.45
41712;BME280;27399;51.516;13.670;2022-10-31T08:38:52;101081.16;;;14.32;92.28
41712;BME280;27399;51.516;13.670;2022-10-31T08:41:18;101080.03;;;14.47;92.97
41712;BME280;27399;51.516;13.670;2022-10-31T08:43:44;101072.88;;;14.49;91.80
41712;BME280;27399;51.516;13.670;2022-10-31T08:46:10;101073.56;;;14.64;91.04
41712;BME280;27399;51.516;13.670;2022-10-31T08:48:35;101083.47;;;14.59;91.53
41712;BME280;27399;51.516;13.670;2022-10-31T08:51:01;101077.88;;;14.76;91.71
41712;BME280;27399;51.516;13.670;2022-10-31T08:53:27;101076.47;;;15.08;91.55
41712;BME280;27399;51.516;13.670;2022-10-31T08:55:54;101076.91;;;15.34;90.38
41712;BME280;27399;51.516;13.670;2022-10-31T08:58:21;101070.13;;;15.62;89.29
41712;BME280;27399;51.516;13.670;2022-10-31T09:00:52;101072.47;;;15.80;89.03
41712;BME280;27399;51.516;13.670;2022-10-31T09:03:20;101068.44;;;16.03;88.95
41712;BME280;27399;51.516;13.670;2022-10-31T09:05:47;101058.19;;;16.22;88.94
41712;BME280;27399;51.516;13.670;2022-10-31T09:08:13;101061.53;;;16.34;88.12
41712;BME280;27399;51.516;13.670;2022-10-31T09:10:39;101060.53;;;16.38;88.24
41712;BME280;27399;51.516;13.670;2022-10-31T09:13:10;101070.00;;;16.56;88.06
41712;BME280;27399;51.516;13.670;2022-10-31T09:15:38;101045.50;;;16.67;88.28
41712;BME280;27399;51.516;13.670;2022-10-31T09:18:05;101071.78;;;16.95;88.00
41712;BME280;27399;51.516;13.670;2022-10-31T09:20:32;101069.28;;;17.23;86.30
41712;BME280;27399;51.516;13.670;2022-10-31T09:22:59;101069.06;;;17.32;87.99
41712;BME280;27399;51.516;13.670;2022-10-31T09:25:26;101066.09;;;17.76;86.00
41712;BME280;27399;51.516;13.670;2022-10-31T09:27:56;101064.19;;;18.11;84.35
41712;BME280;27399;51.516;13.670;2022-10-31T09:30:22;101064.63;;;18.27;85.49
41712;BME280;27399;51.516;13.670;2022-10-31T09:32:48;101062.94;;;18.53;83.84
41712;BME280;27399;51.516;13.670;2022-10-31T09:35:13;101068.44;;;18.79;81.72
41712;BME280;27399;51.516;13.670;2022-10-31T09:37:39;101070.41;;;19.02;79.49
41712;BME280;27399;51.516;13.670;2022-10-31T09:40:05;101066.59;;;19.08;80.48
41712;BME280;27399;51.516;13.670;2022-10-31T09:42:53;101067.34;;;19.13;78.88
41712;BME280;27399;51.516;13.670;2022-10-31T09:45:26;101071.34;;;19.28;77.61
41712;BME280;27399;51.516;13.670;2022-10-31T09:48:16;101070.41;;;19.29;80.03
41712;BME280;27399;51.516;13.670;2022-10-31T09:50:48;101070.03;;;19.40;77.95
41712;BME280;27399;51.516;13.670;2022-10-31T09:56:06;101070.19;;;19.60;76.72
41712;BME280;27399;51.516;13.670;2022-10-31T09:58:42;101072.69;;;19.66;77.62
41712;BME280;27399;51.516;13.670;2022-10-31T10:01:18;101073.50;;;19.69;76.81
41712;BME280;27399;51.516;13.670;2022-10-31T10:03:50;101066.94;;;19.76;77.42
41712;BME280;27399;51.516;13.670;2022-10-31T10:06:22;101078.47;;;19.81;77.10
41712;BME280;27399;51.516;13.670;2022-10-31T10:08:48;101074.34;;;19.71;76.01
41712;BME280;27399;51.516;13.670;2022-10-31T10:24:54;101068.66;;;19.53;77.24
41712;BME280;27399;51.516;13.670;2022-10-31T10:30:19;101058.44;;;19.61;76.73
41712;BME280;27399;51.516;13.670;2022-10-31T10:32:50;101059.38;;;19.60;77.71
41712;BME280;27399;51.516;13.670;2022-10-31T10:35:40;101057.25;;;19.69;77.76
41712;BME280;27399;51.516;13.670;2022-10-31T10:38:12;101059.97;;;19.69;77.49
41712;BME280;27399;51.516;13.670;2022-10-31T10:40:41;101060.09;;;19.65;77.22
41712;BME280;27399;51.516;13.670;2022-10-31T10:49:15;101044.47;;;19.74;77.45
41712;BME280;27399;51.516;13.670;2022-10-31T10:51:45;101049.34;;;19.89;77.34
41712;BME280;27399;51.516;13.670;2022-10-31T10:54:48;101046.41;;;19.95;76.30
41712;BME280;27399;51.516;13.670;2022-10-31T10:57:36;101042.22;;;20.10;76.02
41712;BME280;27399;51.516;13.670;2022-10-31T11:02:42;101031.66;;;20.26;75.34
41712;BME280;27399;51.516;13.670;2022-10-31T11:05:18;101035.66;;;20.40;76.04
41712;BME280;27399;51.516;13.670;2022-10-31T11:07:45;101021.88;;;20.46;75.74
41712;BME280;27399;51.516;13.670;2022-10-31T11:10:15;101027.72;;;20.57;75.50
41712;BME280;27399;51.516;13.670;2022-10-31T11:12:43;101021.75;;;20.49;75.38
41712;BME280;27399;51.516;13.670;2022-10-31T11:15:24;101014.69;;;20.45;76.40
41712;BME280;27399;51.516;13.670;2022-10-31T11:17:56;101016.44;;;20.46;75.37
41712;BME280;27399;51.516;13.670;2022-10-31T11:20:31;101016.03;;;20.57;74.16
41712;BME280;27399;51.516;13.670;2022-10-31T11:23:20;101011.09;;;20.67;74.45
41712;BME280;27399;51.516;13.670;2022-10-31T11:26:16;101018.16;;;20.71;74.24
41712;BME280;27399;51.516;13.670;2022-10-31T11:28:43;101014.28;;;20.78;74.36
41712;BME280;27399;51.516;13.670;2022-10-31T11:31:12;101012.66;;;20.72;75.16
41712;BME280;27399;51.516;13.670;2022-10-31T11:33:46;101014.91;;;20.63;75.01
41712;BME280;27399;51.516;13.670;2022-10-31T11:36:27;101015.13;;;20.56;75.37
41712;BME280;27399;51.516;13.670;2022-10-31T11:38:54;101016.16;;;20.76;74.77
41712;BME280;27399;51.516;13.670;2022-10-31T11:41:30;101009.41;;;20.86;74.53
41712;BME280;27399;51.516;13.670;2022-10-31T11:48:55;101002.53;;;21.00;74.28
41712;BME280;27399;51.516;13.670;2022-10-31T11:54:54;101003.41;;;21.00;73.99
41712;BME280;27399;51.516;13.670;2022-10-31T11:57:31;100999.19;;;20.93;74.73
41712;BME280;27399;51.516;13.670;2022-10-31T12:00:00;100996.59;;;20.90;74.77
41712;BME280;27399;51.516;13.670;2022-10-31T12:02:27;100992.38;;;21.05;74.56
41712;BME280;27399;51.516;13.670;2022-10-31T12:04:59;100996.97;;;21.03;74.31
41712;BME280;27399;51.516;13.670;2022-10-31T12:07:28;100991.88;;;21.16;73.46
41712;BME280;27399;51.516;13.670;2022-10-31T12:09:54;100986.19;;;21.22;74.17
41712;BME280;27399;51.516;13.670;2022-10-31T12:12:26;100980.50;;;21.08;73.39
41712;BME280;27399;51.516;13.670;2022-10-31T12:15:15;100974.47;;;21.21;73.62
41712;BME280;27399;51.516;13.670;2022-10-31T12:17:49;100978.81;;;21.26;73.57
41712;BME280;27399;51.516;13.670;2022-10-31T12:20:35;100971.09;;;21.37;72.90
41712;BME280;27399;51.516;13.670;2022-10-31T12:24:15;100975.16;;;21.27;72.79
41712;BME280;27399;51.516;13.670;2022-10-31T12:26:42;100969.56;;;21.50;73.29
41712;BME280;27399;51.516;13.670;2022-10-31T12:32:19;100971.75;;;21.63;72.83
41712;BME280;27399;51.516;13.670;2022-10-31T12:35:13;100963.84;;;21.57;72.96
41712;BME280;27399;51.516;13.670;2022-10-31T12:38:06;100964.00;;;21.54;72.84
41712;BME280;27399;51.516;13.670;2022-10-31T12:43:46;100961.03;;;21.18;72.88
41712;BME280;27399;51.516;13.670;2022-10-31T12:49:24;100955.97;;;21.50;73.61
41712;BME280;27399;51.516;13.670;2022-10-31T12:54:40;100951.88;;;21.42;73.08
41712;BME280;27399;51.516;13.670;2022-10-31T12:57:51;100950.78;;;21.25;73.80
41712;BME280;27399;51.516;13.670;2022-10-31T13:00:19;100949.56;;;21.53;74.00
41712;BME280;27399;51.516;13.670;2022-10-31T13:02:56;100948.66;;;21.52;73.52
41712;BME280;27399;51.516;13.670;2022-10-31T13:05:37;100950.84;;;21.44;73.40
41712;BME280;27399;51.516;13.670;2022-10-31T13:08:20;100944.88;;;21.57;73.27
41712;BME280;27399;51.516;13.670;2022-10-31T13:11:05;100945.44;;;21.44;73.77
41712;BME280;27399;51.516;13.670;2022-10-31T13:16:37;100944.69;;;21.41;73.37
41712;BME280;27399;51.516;13.670;2022-10-31T13:24:23;100940.25;;;21.38;74.09
41712;BME280;27399;51.516;13.670;2022-10-31T13:26:54;100932.13;;;21.17;74.18
41712;BME280;27399;51.516;13.670;2022-10-31T13:29:28;100933.34;;;21.31;73.69
41712;BME280;27399;51.516;13.670;2022-10-31T13:31:56;100935.41;;;21.26;73.81
41712;BME280;27399;51.516;13.670;2022-10-31T13:37:28;100928.25;;;21.44;73.74
41712;BME280;27399;51.516;13.670;2022-10-31T13:40:13;100925.63;;;21.42;73.03
41712;BME280;27399;51.516;13.670;2022-10-31T13:45:17;100924.16;;;21.35;73.49
41712;BME280;27399;51.516;13.670;2022-10-31T13:47:54;100917.97;;;21.31;72.21
41712;BME280;27399;51.516;13.670;2022-10-31T13:50:26;100916.59;;;21.42;74.72
41712;BME280;27399;51.516;13.670;2022-10-31T13:53:09;100912.38;;;21.15;77.05
41712;BME280;27399;51.516;13.670;2022-10-31T13:55:48;100917.22;;;21.07;77.42
41712;BME280;27399;51.516;13.670;2022-10-31T14:01:19;100919.94;;;21.07;76.96
41712;BME280;27399;51.516;13.670;2022-10-31T14:04:07;100914.81;;;21.01;77.46
41712;BME280;27399;51.516;13.670;2022-10-31T14:06:53;100908.34;;;21.03;76.85
41712;BME280;27399;51.516;13.670;2022-10-31T14:11:50;100912.38;;;20.74;79.32
41712;BME280;27399;51.516;13.670;2022-10-31T14:14:19;100901.75;;;20.68;78.60
41712;BME280;27399;51.516;13.670;2022-10-31T14:16:46;100897.22;;;20.68;77.97
41712;BME280;27399;51.516;13.670;2022-10-31T14:19:19;100904.16;;;20.53;79.33
41712;BME280;27399;51.516;13.670;2022-10-31T14:21:47;100906.59;;;20.39;80.19
41712;BME280;27399;51.516;13.670;2022-10-31T14:24:32;100899.34;;;20.39;79.82
41712;BME280;27399;51.516;13.670;2022-10-31T14:29:50;100904.66;;;20.20;80.49
41712;BME280;27399;51.516;13.670;2022-10-31T14:32:25;100897.28;;;20.24;80.14
41712;BME280;27399;51.516;13.670;2022-10-31T14:34:56;100901.16;;;20.17;80.63